Startpagina
METAR-TAF:

METAR-TAF

Vliegvelden :

Panama Pacifico, Panama

breedte: 08-55N, lengte: 079-36W, hoogte: 16 m

Actueel weer

Dit bericht is 40 minuten geleden gemaakt, om 23:00 UTC
Wind 15 kt uit het noordnoordoosten
Temperatuur 29°C
Vochtigheid 43%
Druk 1011 hPa
Zicht 10 km of meer
Weinig wolken op 2000 ft

METAR: MPPA 232300Z 02015KT 9999 FEW020 29/15 Q1011

Tijdstip: 18:40 (23:40 UTC)

Verwachting

Dit bericht is 40 minuten geleden gemaakt, om 23:00 UTC
Verwachting geldig van 23 om 24 UTC tot 25 om 06 UTC
Wind 15 kt uit het noorden
Zicht 10 km of meer
Weinig wolken op 2000 ft
Wijzigt naar
van 24 om 03 UTC tot 24 om 07 UTC
Zicht 10 km of meer
geen wolken onder 1500 m en geen cumulonimbus
Tijdelijke
van 24 om 10 UTC tot 24 om 12 UTC
Wind 2 kt uit variabele richting

TAF: MPPA 232300Z 2324/2506 01015KT 9999 FEW020 BECMG 2403/2407 CAVOK TEMPO 2410/2412 VRB02KT

Waarnemingen en weersverwachtingen van meer dan 4000 vliegvelden (METAR en TAF).

De beschikbare stations zijn de gele en rode punten op de kaart.

Ga met uw muis naar het station om de naam te zien.

Klik dan om waarnemingen en weersverwachtingen te zien.

kaart wijzigen: klik op de groene knoppen met een zwart kruis om in te zoomen, op de groene knop met een streepje om uit te zoomen of op de groene pijlen voor aangrenzende kaarten.


METAR-TAF: